Time;durP1;ratioP1;P1;durP2;ratioP2;P2;SDS_P1;SDS_P2;PMS_P1;PMS_P2;Temp;Humidity;BMP_temperature;BMP_pressure;BME280_temperature;BME280_humidity;BME280_pressure;Samples;Min_cycle;Max_cycle;Signal;HPM_P1;HPM_P2
2021/12/14 00:02:04;;;;;;;1.00;0.23;;;4.30;99.90;;;;;;5060135;28;20475;-87
2021/12/14 00:04:34;;;;;;;0.30;0.10;;;4.30;99.90;;;;;;5070438;28;20980;-87
2021/12/14 00:07:04;;;;;;;0.30;0.10;;;4.20;99.90;;;;;;5071015;28;20468;-88
2021/12/14 00:09:35;;;;;;;0.30;0.20;;;4.20;99.90;;;;;;5069592;28;20773;-87
2021/12/14 00:12:19;;;;;;;0.30;0.10;;;4.20;99.90;;;;;;5062034;28;20856;-88
2021/12/14 00:15:05;;;;;;;0.50;0.50;;;4.20;99.90;;;;;;5067494;28;20984;-86
2021/12/14 00:17:39;;;;;;;0.30;0.10;;;4.20;99.90;;;;;;5071893;28;20985;-87
2021/12/14 00:20:15;;;;;;;0.30;0.30;;;4.20;99.90;;;;;;5064764;28;20508;-87
2021/12/14 00:25:29;;;;;;;0.30;0.10;;;4.20;99.90;;;;;;5070369;28;20423;-87
2021/12/14 00:27:59;;;;;;;0.30;0.10;;;4.20;99.90;;;;;;5068399;28;20517;-87
2021/12/14 00:30:27;;;;;;;0.30;0.10;;;4.10;99.90;;;;;;5058266;28;20844;-87
2021/12/14 00:32:55;;;;;;;0.30;0.20;;;4.20;99.90;;;;;;5052188;28;20451;-87
2021/12/14 00:35:22;;;;;;;0.30;0.10;;;4.10;99.90;;;;;;5070481;28;20809;-87
2021/12/14 00:37:52;;;;;;;0.30;0.10;;;4.20;99.90;;;;;;5071290;28;20821;-88
2021/12/14 00:40:23;;;;;;;0.30;0.10;;;4.20;99.90;;;;;;5056396;28;20510;-87
2021/12/14 00:42:51;;;;;;;0.30;0.17;;;4.20;99.90;;;;;;5061689;28;20456;-86
2021/12/14 00:45:21;;;;;;;0.30;0.10;;;4.20;99.90;;;;;;5071347;28;20431;-87
2021/12/14 00:47:48;;;;;;;0.30;0.10;;;4.10;99.90;;;;;;5073720;28;20460;-87
2021/12/14 00:50:18;;;;;;;0.30;0.10;;;4.20;99.90;;;;;;5078153;28;20489;-89
2021/12/14 00:52:47;;;;;;;0.40;0.30;;;4.20;99.90;;;;;;5073395;28;20521;-88
2021/12/14 00:55:16;;;;;;;0.30;0.10;;;4.20;99.90;;;;;;5067631;28;20444;-87
2021/12/14 00:57:44;;;;;;;0.30;0.10;;;4.20;99.90;;;;;;5070854;28;20673;-87
2021/12/14 01:00:13;;;;;;;0.30;0.10;;;4.20;99.90;;;;;;5059797;28;20522;-88
2021/12/14 01:02:42;;;;;;;0.30;0.10;;;4.30;99.90;;;;;;5070057;28;20505;-88
2021/12/14 01:05:12;;;;;;;0.87;0.87;;;4.20;99.90;;;;;;5069912;28;20444;-86
2021/12/14 01:07:41;;;;;;;0.30;0.10;;;4.20;99.90;;;;;;5069911;28;20505;-87
2021/12/14 01:10:15;;;;;;;0.30;0.10;;;4.20;99.90;;;;;;5067093;28;21662;-88
2021/12/14 01:12:48;;;;;;;0.30;0.10;;;4.20;99.90;;;;;;5068802;28;20817;-87
2021/12/14 01:15:27;;;;;;;0.30;0.20;;;4.20;99.90;;;;;;5067705;28;20462;-86
2021/12/14 01:18:14;;;;;;;0.30;0.20;;;4.20;99.90;;;;;;5062793;28;20483;-88
2021/12/14 01:20:45;;;;;;;0.30;0.10;;;4.10;99.90;;;;;;5068887;28;20448;-87
2021/12/14 01:23:19;;;;;;;0.30;0.10;;;4.20;99.90;;;;;;5070194;28;20496;-87
2021/12/14 01:25:49;;;;;;;0.30;0.10;;;4.20;99.90;;;;;;5070270;28;20919;-87
2021/12/14 01:28:20;;;;;;;0.30;0.10;;;4.10;99.90;;;;;;5066982;28;20529;-87
2021/12/14 01:30:59;;;;;;;0.30;0.20;;;4.10;99.90;;;;;;5069927;28;20529;-86
2021/12/14 01:33:27;;;;;;;0.30;0.13;;;4.10;99.90;;;;;;5068665;28;20991;-87
2021/12/14 01:35:55;;;;;;;0.30;0.10;;;4.20;99.90;;;;;;5068741;28;20539;-87
2021/12/14 01:38:34;;;;;;;0.30;0.20;;;4.20;99.90;;;;;;5069539;28;20486;-87
2021/12/14 01:41:05;;;;;;;1.60;1.50;;;4.20;99.90;;;;;;5066475;28;20444;-87
2021/12/14 01:43:38;;;;;;;0.30;0.10;;;4.10;99.90;;;;;;5057069;28;20452;-86
2021/12/14 01:46:10;;;;;;;0.30;0.10;;;4.20;99.90;;;;;;5062235;28;20449;-87
2021/12/14 01:48:39;;;;;;;0.30;0.10;;;4.10;99.90;;;;;;5066829;28;20450;-87
2021/12/14 01:51:07;;;;;;;0.53;0.53;;;4.20;99.90;;;;;;5060000;28;20449;-87
2021/12/14 01:53:38;;;;;;;0.30;0.10;;;4.10;99.90;;;;;;5065778;28;20456;-87
2021/12/14 01:56:09;;;;;;;0.30;0.10;;;4.10;99.90;;;;;;5061156;28;20468;-86
2021/12/14 01:58:39;;;;;;;0.73;0.73;;;4.00;99.90;;;;;;5069526;28;21031;-86
2021/12/14 02:01:12;;;;;;;0.30;0.10;;;4.00;99.90;;;;;;5058656;28;20940;-86
2021/12/14 02:03:43;;;;;;;0.30;0.10;;;4.00;99.90;;;;;;5067056;28;20462;-86
2021/12/14 02:06:15;;;;;;;0.30;0.10;;;4.10;99.90;;;;;;5069190;28;20444;-86
2021/12/14 02:08:44;;;;;;;0.67;0.67;;;4.10;99.90;;;;;;5064143;28;20460;-86
2021/12/14 02:11:12;;;;;;;0.30;0.10;;;4.10;99.90;;;;;;5066224;28;20441;-87
2021/12/14 02:13:44;;;;;;;0.33;0.17;;;4.10;99.90;;;;;;5065529;28;20501;-87
2021/12/14 02:16:15;;;;;;;0.40;0.40;;;4.10;99.90;;;;;;5069119;28;20516;-87
2021/12/14 02:18:45;;;;;;;0.30;0.20;;;4.00;99.90;;;;;;5063308;28;20974;-87
2021/12/14 02:21:15;;;;;;;0.30;0.10;;;4.00;99.90;;;;;;5064835;28;20840;-87
2021/12/14 02:23:47;;;;;;;0.30;0.10;;;4.00;99.90;;;;;;5067157;28;20436;-88
2021/12/14 02:26:18;;;;;;;0.30;0.10;;;4.00;99.90;;;;;;5049857;28;20494;-88
2021/12/14 02:28:45;;;;;;;0.30;0.10;;;4.00;99.90;;;;;;5065560;28;20455;-87
2021/12/14 02:31:17;;;;;;;0.30;0.10;;;3.90;99.90;;;;;;5066618;28;20476;-87
2021/12/14 02:33:48;;;;;;;0.40;0.30;;;4.00;99.90;;;;;;5067299;28;20466;-87
2021/12/14 02:36:23;;;;;;;0.30;0.10;;;4.00;99.90;;;;;;5069278;28;20456;-88
2021/12/14 02:39:04;;;;;;;0.30;0.10;;;4.10;99.90;;;;;;5069484;28;20482;-86
2021/12/14 02:41:34;;;;;;;0.30;0.10;;;4.10;99.90;;;;;;5075330;28;20495;-86
2021/12/14 02:44:02;;;;;;;0.30;0.10;;;4.00;99.90;;;;;;5081747;28;20521;-87
2021/12/14 02:46:33;;;;;;;0.30;0.20;;;3.90;99.90;;;;;;5069522;28;20486;-87
2021/12/14 02:49:04;;;;;;;0.30;0.10;;;4.00;99.90;;;;;;5068318;28;20533;-87
2021/12/14 02:51:36;;;;;;;0.30;0.10;;;4.00;99.90;;;;;;5068492;28;20458;-87
2021/12/14 02:54:06;;;;;;;0.30;0.20;;;3.90;99.90;;;;;;5069113;28;20918;-87
2021/12/14 02:56:36;;;;;;;0.30;0.10;;;4.00;99.90;;;;;;5057338;28;20529;-87
2021/12/14 02:59:07;;;;;;;0.30;0.20;;;4.00;99.90;;;;;;5069149;28;20533;-87
2021/12/14 03:01:36;;;;;;;0.97;0.97;;;4.00;99.90;;;;;;5068474;28;20505;-86
2021/12/14 03:04:06;;;;;;;0.30;0.10;;;4.00;99.90;;;;;;5066433;28;20447;-88
2021/12/14 03:06:44;;;;;;;0.30;0.10;;;4.00;99.90;;;;;;5049761;28;20453;-87
2021/12/14 03:09:31;;;;;;;0.30;0.10;;;4.00;99.90;;;;;;5059527;28;20444;-88
2021/12/14 03:11:58;;;;;;;0.30;0.10;;;3.90;99.90;;;;;;5068524;28;20922;-88
2021/12/14 03:14:26;;;;;;;0.30;0.10;;;4.00;99.90;;;;;;5069464;28;20445;-87
2021/12/14 03:16:53;;;;;;;1.77;1.70;;;4.10;99.90;;;;;;5068635;28;20551;-87
2021/12/14 03:19:20;;;;;;;0.30;0.10;;;4.10;99.90;;;;;;5071058;28;20537;-87
2021/12/14 03:21:49;;;;;;;0.30;0.20;;;4.00;99.90;;;;;;5061602;28;20506;-86
2021/12/14 03:24:19;;;;;;;0.50;0.40;;;4.00;99.90;;;;;;5061536;28;20452;-87
2021/12/14 03:26:48;;;;;;;0.30;0.10;;;4.00;99.90;;;;;;5067918;28;20448;-87
2021/12/14 03:29:19;;;;;;;0.77;0.77;;;4.00;99.90;;;;;;5072393;28;20806;-87
2021/12/14 03:31:49;;;;;;;0.30;0.10;;;4.00;99.90;;;;;;5072634;28;20456;-87
2021/12/14 03:34:21;;;;;;;0.40;0.20;;;3.90;99.90;;;;;;5070726;28;20493;-87
2021/12/14 03:36:53;;;;;;;0.40;0.40;;;3.90;99.90;;;;;;5071294;28;20521;-87
2021/12/14 03:39:23;;;;;;;1.80;0.63;;;4.00;99.90;;;;;;5072240;28;20475;-87
2021/12/14 03:41:52;;;;;;;0.70;0.50;;;4.00;99.90;;;;;;5075021;28;20505;-87
2021/12/14 03:44:23;;;;;;;0.60;0.57;;;4.00;99.90;;;;;;5072904;28;20784;-87
2021/12/14 03:46:52;;;;;;;0.53;0.40;;;3.90;99.90;;;;;;5061649;28;20448;-86
2021/12/14 03:49:21;;;;;;;0.30;0.10;;;3.90;99.90;;;;;;5069566;28;20455;-87
2021/12/14 03:51:51;;;;;;;0.30;0.10;;;3.90;99.90;;;;;;5070933;28;20537;-87
2021/12/14 03:54:19;;;;;;;0.30;0.10;;;3.90;99.90;;;;;;5072786;28;20950;-87
2021/12/14 03:56:47;;;;;;;3.13;0.57;;;3.90;99.90;;;;;;5070495;28;20538;-86
2021/12/14 03:59:14;;;;;;;0.30;0.10;;;3.90;99.90;;;;;;5068317;28;20488;-86
2021/12/14 04:01:44;;;;;;;0.30;0.10;;;3.90;99.90;;;;;;5070548;28;20460;-86
2021/12/14 04:04:18;;;;;;;0.30;0.20;;;3.90;99.90;;;;;;5069843;28;20444;-87
2021/12/14 04:06:47;;;;;;;0.30;0.20;;;3.90;99.90;;;;;;5071675;28;20448;-86
2021/12/14 04:09:18;;;;;;;0.50;0.50;;;4.00;99.90;;;;;;5071127;28;20533;-87
2021/12/14 04:11:45;;;;;;;0.80;0.80;;;4.00;99.90;;;;;;5061870;28;20453;-87
2021/12/14 04:14:13;;;;;;;0.30;0.10;;;4.00;99.90;;;;;;5058325;28;20511;-86
2021/12/14 04:16:43;;;;;;;0.30;0.10;;;4.00;99.90;;;;;;5069560;28;20796;-87
2021/12/14 04:19:14;;;;;;;1.07;0.57;;;4.00;99.90;;;;;;5071986;28;20525;-87
2021/12/14 04:21:44;;;;;;;0.30;0.10;;;3.90;99.90;;;;;;5070346;28;20926;-87
2021/12/14 04:24:14;;;;;;;0.40;0.40;;;3.90;99.90;;;;;;5071736;28;20504;-87
2021/12/14 04:26:45;;;;;;;0.30;0.20;;;3.90;99.90;;;;;;5071428;28;20497;-86
2021/12/14 04:29:14;;;;;;;0.30;0.20;;;3.90;99.90;;;;;;5062047;28;20536;-86
2021/12/14 04:31:43;;;;;;;0.30;0.30;;;3.90;99.90;;;;;;5055765;28;20946;-86
2021/12/14 04:34:10;;;;;;;0.30;0.10;;;3.90;99.90;;;;;;5062690;28;20919;-86
2021/12/14 04:36:39;;;;;;;0.30;0.10;;;3.90;99.90;;;;;;5058643;28;20441;-86
2021/12/14 04:39:30;;;;;;;0.30;0.10;;;3.90;99.90;;;;;;5065324;28;20475;-86
2021/12/14 04:53:27;;;;;;;0.30;0.10;;;3.80;99.90;;;;;;5070416;28;20447;-86
2021/12/14 04:56:01;;;;;;;0.30;0.10;;;3.80;99.90;;;;;;5064869;28;20432;-88
2021/12/14 04:58:32;;;;;;;0.30;0.10;;;3.90;99.90;;;;;;5070994;28;20534;-87
2021/12/14 05:01:02;;;;;;;0.30;0.10;;;3.80;99.90;;;;;;5070933;28;21051;-88
2021/12/14 05:03:35;;;;;;;0.30;0.10;;;3.90;99.90;;;;;;5069234;28;20986;-88
2021/12/14 05:06:14;;;;;;;0.30;0.17;;;3.80;99.90;;;;;;5069557;28;20479;-88
2021/12/14 05:11:26;;;;;;;0.30;0.10;;;3.90;99.90;;;;;;5069712;28;20443;-87
2021/12/14 05:14:00;;;;;;;0.57;0.57;;;4.00;99.90;;;;;;5061632;28;20470;-87
2021/12/14 05:16:30;;;;;;;0.30;0.10;;;4.00;99.90;;;;;;5061423;28;20448;-88
2021/12/14 05:19:01;;;;;;;0.30;0.10;;;4.00;99.90;;;;;;5060328;28;21417;-87
2021/12/14 05:21:30;;;;;;;0.30;0.10;;;3.90;99.90;;;;;;5061998;28;20487;-86
2021/12/14 05:23:59;;;;;;;0.30;0.20;;;3.90;99.90;;;;;;5063397;28;20470;-87
2021/12/14 05:26:26;;;;;;;0.30;0.10;;;3.90;99.90;;;;;;5059048;28;20456;-87
2021/12/14 05:28:55;;;;;;;2.00;0.93;;;3.90;99.90;;;;;;5057470;28;20489;-87
2021/12/14 05:31:22;;;;;;;0.30;0.10;;;3.90;99.90;;;;;;5060016;28;20485;-87
2021/12/14 05:33:49;;;;;;;0.30;0.10;;;3.90;99.90;;;;;;5059129;28;20440;-87
2021/12/14 05:36:20;;;;;;;0.50;0.50;;;3.90;99.90;;;;;;5073726;28;20509;-87
2021/12/14 05:38:56;;;;;;;0.30;0.10;;;3.90;99.90;;;;;;5071273;28;20487;-86
2021/12/14 05:44:14;;;;;;;0.30;0.10;;;3.90;99.90;;;;;;5068983;28;20517;-86
2021/12/14 05:46:49;;;;;;;0.30;0.10;;;3.90;99.90;;;;;;5068789;28;20452;-88
2021/12/14 05:49:18;;;;;;;0.30;0.10;;;3.90;99.90;;;;;;5069122;28;20447;-87
2021/12/14 05:51:48;;;;;;;4.00;1.53;;;3.90;99.90;;;;;;5068786;28;20821;-86
2021/12/14 05:54:20;;;;;;;0.30;0.10;;;3.90;99.90;;;;;;5069288;28;20437;-87
2021/12/14 05:56:48;;;;;;;0.30;0.10;;;4.00;99.90;;;;;;5066986;28;20542;-86
2021/12/14 05:59:19;;;;;;;1.03;1.03;;;3.90;99.90;;;;;;5060121;28;20544;-86
2021/12/14 06:01:47;;;;;;;0.30;0.20;;;3.90;99.90;;;;;;5061352;28;20548;-87
2021/12/14 06:04:15;;;;;;;0.30;0.10;;;3.90;99.90;;;;;;5061466;28;20448;-88
2021/12/14 06:06:44;;;;;;;0.30;0.10;;;3.90;99.90;;;;;;5067156;28;20464;-88
2021/12/14 06:09:15;;;;;;;0.30;0.20;;;3.90;99.90;;;;;;5070066;28;20448;-87
2021/12/14 06:11:45;;;;;;;0.30;0.10;;;3.90;99.90;;;;;;5061660;28;20467;-90
2021/12/14 06:14:16;;;;;;;0.30;0.20;;;3.90;99.90;;;;;;5070124;28;20440;-86
2021/12/14 06:16:45;;;;;;;0.30;0.10;;;3.90;99.90;;;;;;5068217;28;20496;-86
2021/12/14 06:19:20;;;;;;;0.30;0.10;;;3.90;99.90;;;;;;5067194;28;20478;-86
2021/12/14 06:21:50;;;;;;;0.30;0.10;;;4.00;99.90;;;;;;5068385;28;20504;-87
2021/12/14 06:24:17;;;;;;;1.47;0.60;;;4.00;99.90;;;;;;5069978;28;20463;-87
2021/12/14 06:26:46;;;;;;;0.33;0.20;;;3.90;99.90;;;;;;5064780;28;20437;-85
2021/12/14 06:29:15;;;;;;;0.30;0.10;;;3.90;99.90;;;;;;5054944;28;20832;-86
2021/12/14 06:31:44;;;;;;;0.30;0.17;;;4.00;99.90;;;;;;5071041;28;21055;-87
2021/12/14 06:34:20;;;;;;;0.30;0.20;;;4.00;99.90;;;;;;5072113;28;20475;-87
2021/12/14 06:37:42;;;;;;;1.53;1.43;;;4.00;99.90;;;;;;5070332;28;20447;-86
2021/12/14 06:40:18;;;;;;;0.30;0.10;;;3.90;99.90;;;;;;5067815;28;20525;-86
2021/12/14 06:42:48;;;;;;;0.30;0.10;;;4.00;99.90;;;;;;5069648;28;20497;-87
2021/12/14 06:45:19;;;;;;;0.30;0.20;;;4.00;99.90;;;;;;5068594;28;20459;-86
2021/12/14 06:47:50;;;;;;;0.30;0.10;;;4.10;99.90;;;;;;5063955;28;20470;-87
2021/12/14 06:50:22;;;;;;;0.30;0.20;;;4.20;99.90;;;;;;5065111;28;20494;-86
2021/12/14 06:52:57;;;;;;;0.30;0.10;;;4.30;99.90;;;;;;5068575;28;20791;-87
2021/12/14 06:55:26;;;;;;;0.30;0.10;;;4.10;99.90;;;;;;5062180;28;20995;-86
2021/12/14 06:57:53;;;;;;;0.30;0.10;;;4.20;99.90;;;;;;5066614;28;20464;-87
2021/12/14 07:00:21;;;;;;;0.30;0.10;;;4.00;99.90;;;;;;5053256;28;20480;-87
2021/12/14 07:02:51;;;;;;;0.30;0.10;;;4.00;99.90;;;;;;5065312;28;20444;-88
2021/12/14 07:05:21;;;;;;;0.30;0.10;;;4.00;99.90;;;;;;5070157;28;20934;-86
2021/12/14 07:07:48;;;;;;;0.30;0.10;;;4.00;99.90;;;;;;5073328;28;20493;-86
2021/12/14 07:10:17;;;;;;;0.30;0.10;;;3.90;99.90;;;;;;5072917;28;20471;-86
2021/12/14 07:12:47;;;;;;;0.30;0.10;;;3.90;99.90;;;;;;5074203;28;20436;-87
2021/12/14 07:15:19;;;;;;;0.30;0.10;;;3.90;99.90;;;;;;5073995;28;20505;-87
2021/12/14 07:17:54;;;;;;;0.30;0.20;;;3.90;99.90;;;;;;5072769;28;20459;-88
2021/12/14 07:20:26;;;;;;;0.30;0.10;;;4.00;99.90;;;;;;5063911;28;20475;-87
2021/12/14 07:22:56;;;;;;;0.30;0.10;;;4.00;99.90;;;;;;5058828;28;20784;-89
2021/12/14 07:25:27;;;;;;;1.13;0.37;;;4.00;99.90;;;;;;5053644;28;20484;-86
2021/12/14 07:27:55;;;;;;;0.30;0.20;;;4.00;99.90;;;;;;5073584;28;20429;-88
2021/12/14 07:30:25;;;;;;;0.30;0.10;;;4.10;99.90;;;;;;5072842;28;20479;-87
2021/12/14 07:33:01;;;;;;;0.30;0.13;;;4.00;99.90;;;;;;5071900;28;20451;-87
2021/12/14 07:35:49;;;;;;;0.30;0.10;;;4.10;99.90;;;;;;5053412;28;20497;-88
2021/12/14 07:38:43;;;;;;;0.30;0.20;;;4.10;99.90;;;;;;5067798;28;20532;-87
2021/12/14 07:41:24;;;;;;;0.30;0.10;;;4.00;99.90;;;;;;5072963;28;20874;-87
2021/12/14 07:43:57;;;;;;;0.30;0.10;;;4.00;99.90;;;;;;5072699;28;20505;-87
2021/12/14 07:46:31;;;;;;;0.30;0.10;;;4.10;99.90;;;;;;5072721;28;20468;-87
2021/12/14 07:49:02;;;;;;;0.30;0.10;;;4.00;99.90;;;;;;5072526;28;20452;-87
2021/12/14 07:51:34;;;;;;;0.30;0.17;;;4.10;99.90;;;;;;5073128;28;20444;-88
2021/12/14 07:54:06;;;;;;;0.30;0.17;;;4.10;99.90;;;;;;5071700;28;21078;-87
2021/12/14 07:56:41;;;;;;;0.30;0.20;;;4.20;99.90;;;;;;5071735;28;20436;-88
2021/12/14 07:59:22;;;;;;;0.30;0.20;;;4.20;99.90;;;;;;5072149;28;20508;-89
2021/12/14 08:01:51;;;;;;;0.30;0.10;;;4.20;99.90;;;;;;5070255;28;20452;-87
2021/12/14 08:04:20;;;;;;;0.30;0.10;;;4.20;99.90;;;;;;5071315;28;20440;-88
2021/12/14 08:06:51;;;;;;;0.30;0.10;;;4.20;99.90;;;;;;5069359;28;20441;-87
2021/12/14 08:09:32;;;;;;;0.40;0.30;;;4.20;99.90;;;;;;5071671;28;20459;-87
2021/12/14 08:12:00;;;;;;;0.30;0.10;;;4.20;99.90;;;;;;5072132;28;20450;-88
2021/12/14 08:14:29;;;;;;;0.30;0.20;;;4.30;99.90;;;;;;5072823;28;20910;-88
2021/12/14 08:17:02;;;;;;;0.30;0.10;;;4.30;99.90;;;;;;5070936;28;20808;-87
2021/12/14 08:19:35;;;;;;;0.30;0.10;;;4.40;99.90;;;;;;5072778;28;20475;-87
2021/12/14 08:22:09;;;;;;;0.30;0.10;;;4.60;99.90;;;;;;5073227;28;20931;-87
2021/12/14 08:24:37;;;;;;;0.30;0.10;;;4.60;99.90;;;;;;5090307;28;20615;-87
2021/12/14 08:27:07;;;;;;;0.77;0.73;;;4.70;99.90;;;;;;5079795;28;20501;-88
2021/12/14 08:29:37;;;;;;;0.30;0.10;;;4.70;99.90;;;;;;5073594;28;20451;-87
2021/12/14 08:32:09;;;;;;;0.30;0.20;;;4.60;99.90;;;;;;5072361;28;20460;-88
2021/12/14 08:34:41;;;;;;;0.30;0.10;;;4.70;99.90;;;;;;5070645;28;20463;-87
2021/12/14 08:37:10;;;;;;;0.30;0.10;;;4.80;99.90;;;;;;5071904;28;20444;-88
2021/12/14 08:39:44;;;;;;;0.30;0.10;;;4.80;99.90;;;;;;5071435;28;20483;-88
2021/12/14 08:42:16;;;;;;;0.30;0.10;;;4.80;99.90;;;;;;5071018;28;20447;-87
2021/12/14 08:44:53;;;;;;;0.30;0.10;;;4.80;99.90;;;;;;5072095;28;20443;-88
2021/12/14 08:47:32;;;;;;;0.30;0.10;;;4.90;99.90;;;;;;5070685;28;20451;-87
2021/12/14 08:50:09;;;;;;;0.30;0.20;;;5.00;99.90;;;;;;5065407;28;20898;-87
2021/12/14 08:52:36;;;;;;;0.40;0.30;;;5.10;99.90;;;;;;5071200;28;20549;-87
2021/12/14 08:55:07;;;;;;;0.30;0.10;;;5.10;99.90;;;;;;5071688;28;20828;-89
2021/12/14 08:57:34;;;;;;;0.30;0.10;;;5.20;99.90;;;;;;5070843;28;20520;-87
2021/12/14 09:00:12;;;;;;;0.30;0.20;;;5.20;99.90;;;;;;5072083;28;20850;-90
2021/12/14 09:02:39;;;;;;;0.30;0.17;;;5.10;99.90;;;;;;5072106;28;20439;-89
2021/12/14 09:05:13;;;;;;;0.30;0.10;;;5.10;99.90;;;;;;5070069;28;20807;-89
2021/12/14 09:07:40;;;;;;;0.30;0.10;;;5.00;99.90;;;;;;5070385;28;20444;-89
2021/12/14 09:10:12;;;;;;;0.30;0.20;;;4.90;99.90;;;;;;5069897;28;20485;-89
2021/12/14 09:12:44;;;;;;;0.30;0.20;;;4.90;99.90;;;;;;5067909;28;20443;-90
2021/12/14 09:15:15;;;;;;;0.30;0.10;;;5.00;99.90;;;;;;5068468;28;20914;-89
2021/12/14 09:17:42;;;;;;;0.30;0.20;;;5.00;99.90;;;;;;5053219;28;20445;-88
2021/12/14 09:20:15;;;;;;;0.30;0.10;;;4.80;99.90;;;;;;5079104;28;20459;-89
2021/12/14 09:22:46;;;;;;;0.30;0.10;;;4.90;99.90;;;;;;5084927;28;20456;-89
2021/12/14 09:25:18;;;;;;;0.30;0.10;;;5.00;99.90;;;;;;5077235;28;20493;-90
2021/12/14 09:27:47;;;;;;;0.53;0.50;;;4.90;99.90;;;;;;5071237;28;20447;-90
2021/12/14 09:30:19;;;;;;;0.30;0.10;;;4.90;99.90;;;;;;5069990;28;20472;-90
2021/12/14 09:32:46;;;;;;;0.30;0.10;;;5.00;99.90;;;;;;5052008;28;20445;-89
2021/12/14 09:35:19;;;;;;;0.30;0.10;;;5.00;99.90;;;;;;5069326;28;20501;-89
2021/12/14 09:37:48;;;;;;;0.40;0.40;;;5.10;99.90;;;;;;5070903;28;20937;-90
2021/12/14 09:40:31;;;;;;;0.30;0.20;;;5.20;99.90;;;;;;5069845;28;20872;-88
2021/12/14 09:42:59;;;;;;;0.30;0.10;;;5.30;99.90;;;;;;5069390;28;20468;-88
2021/12/14 09:45:29;;;;;;;0.30;0.10;;;5.40;99.90;;;;;;5070530;28;20436;-89
2021/12/14 09:47:56;;;;;;;0.30;0.20;;;5.50;99.90;;;;;;5070128;28;20444;-88
2021/12/14 09:50:33;;;;;;;0.30;0.10;;;5.50;99.90;;;;;;5070332;28;20509;-89
2021/12/14 09:53:04;;;;;;;0.43;0.40;;;5.50;99.90;;;;;;5070297;28;20505;-89
2021/12/14 09:55:35;;;;;;;0.30;0.30;;;5.30;99.90;;;;;;5071175;28;20505;-89
2021/12/14 09:58:09;;;;;;;0.30;0.20;;;5.30;99.90;;;;;;5068736;28;20464;-88
2021/12/14 10:00:38;;;;;;;0.30;0.10;;;5.20;99.90;;;;;;5069851;28;20537;-89
2021/12/14 10:03:08;;;;;;;0.80;0.77;;;5.30;99.90;;;;;;5069745;28;20983;-89
2021/12/14 10:05:40;;;;;;;0.30;0.13;;;5.30;99.90;;;;;;5071005;28;20471;-88
2021/12/14 10:08:15;;;;;;;0.30;0.20;;;5.30;99.90;;;;;;5069817;28;20499;-89
2021/12/14 10:10:44;;;;;;;0.50;0.50;;;5.30;99.90;;;;;;5069368;28;20530;-90
2021/12/14 10:13:11;;;;;;;0.30;0.10;;;5.50;99.90;;;;;;5070682;28;20444;-89
2021/12/14 10:15:42;;;;;;;1.23;1.13;;;5.60;99.90;;;;;;5072497;28;20455;-89
2021/12/14 10:18:14;;;;;;;6.23;1.60;;;5.60;99.90;;;;;;5092858;28;20493;-88
2021/12/14 10:20:46;;;;;;;0.60;0.60;;;5.50;99.90;;;;;;5079190;28;20479;-88
2021/12/14 10:23:15;;;;;;;0.30;0.20;;;5.50;99.90;;;;;;5069598;28;20463;-88
2021/12/14 10:25:42;;;;;;;0.30;0.10;;;5.50;99.90;;;;;;5068986;28;20819;-88
2021/12/14 10:28:10;;;;;;;0.30;0.20;;;5.60;99.90;;;;;;5070057;28;20444;-88
2021/12/14 10:30:41;;;;;;;0.30;0.23;;;5.50;99.90;;;;;;5052543;28;20530;-88
2021/12/14 10:33:09;;;;;;;0.30;0.20;;;5.50;99.90;;;;;;5066877;28;20458;-88
2021/12/14 10:35:43;;;;;;;0.30;0.10;;;5.50;99.90;;;;;;5068249;28;20475;-89
2021/12/14 10:38:21;;;;;;;0.30;0.20;;;5.40;99.90;;;;;;5067093;28;20936;-90
2021/12/14 10:43:49;;;;;;;0.30;0.10;;;5.50;99.90;;;;;;5043590;28;20798;-87
2021/12/14 10:46:19;;;;;;;0.30;0.10;;;5.60;99.90;;;;;;5062953;28;20512;-88
2021/12/14 10:48:49;;;;;;;0.30;0.10;;;5.60;99.90;;;;;;5068350;28;20539;-89
2021/12/14 10:51:21;;;;;;;0.57;0.57;;;5.70;99.90;;;;;;5058345;28;20437;-88
2021/12/14 10:53:53;;;;;;;0.30;0.20;;;5.80;99.90;;;;;;5060078;28;20526;-88
2021/12/14 10:56:23;;;;;;;0.30;0.20;;;5.90;99.90;;;;;;5068348;28;21020;-87
2021/12/14 10:58:54;;;;;;;0.30;0.10;;;6.00;99.90;;;;;;5069191;28;20440;-89
2021/12/14 11:01:27;;;;;;;0.30;0.17;;;6.00;99.90;;;;;;5068139;28;20547;-89
2021/12/14 11:03:58;;;;;;;0.30;0.10;;;5.80;99.90;;;;;;5062009;28;20831;-89
2021/12/14 11:06:29;;;;;;;0.30;0.10;;;5.70;99.90;;;;;;5069047;28;20505;-88
2021/12/14 11:09:39;;;;;;;0.77;0.53;;;5.80;99.90;;;;;;5065433;28;20486;-88
2021/12/14 11:11:53;;;;;;;0.30;0.20;;;5.70;99.90;;;;;;5067269;28;20443;-88
2021/12/14 11:14:23;;;;;;;0.40;0.40;;;5.70;99.90;;;;;;5083602;28;20431;-88
2021/12/14 11:19:40;;;;;;;0.30;0.10;;;5.70;99.90;;;;;;5068867;28;20437;-88
2021/12/14 11:22:10;;;;;;;0.30;0.10;;;5.60;99.90;;;;;;5065144;28;20480;-88
2021/12/14 11:24:40;;;;;;;1.53;1.43;;;5.50;99.90;;;;;;5065752;28;20503;-88
2021/12/14 11:27:17;;;;;;;1.70;1.03;;;5.50;99.90;;;;;;5068896;28;20443;-87
2021/12/14 11:29:45;;;;;;;0.30;0.20;;;5.50;99.90;;;;;;5068058;28;20868;-87
2021/12/14 11:32:17;;;;;;;0.30;0.10;;;5.50;99.90;;;;;;5067975;28;20573;-88
2021/12/14 11:34:45;;;;;;;0.30;0.10;;;5.50;99.90;;;;;;5060573;28;20441;-88
2021/12/14 11:37:15;;;;;;;0.30;0.10;;;5.40;99.90;;;;;;5067521;28;20446;-88
2021/12/14 11:39:48;;;;;;;0.30;0.10;;;5.40;99.90;;;;;;5060988;28;20437;-88
2021/12/14 11:42:23;;;;;;;0.30;0.10;;;5.40;99.90;;;;;;5066533;28;21454;-88
2021/12/14 11:44:53;;;;;;;0.30;0.10;;;5.40;99.90;;;;;;5066037;28;20476;-88
2021/12/14 11:50:15;;;;;;;0.30;0.10;;;5.70;99.90;;;;;;5071760;28;20443;-88
2021/12/14 11:52:51;;;;;;;0.30;0.10;;;5.80;99.90;;;;;;5068978;28;20532;-88
2021/12/14 11:55:38;;;;;;;0.30;0.10;;;5.80;99.90;;;;;;5062484;28;20476;-90
2021/12/14 11:58:27;;;;;;;0.30;0.10;;;5.70;99.90;;;;;;5071701;28;20458;-88
2021/12/14 12:00:59;;;;;;;0.30;0.10;;;5.60;99.90;;;;;;5066772;28;20588;-88
2021/12/14 12:03:35;;;;;;;0.30;0.10;;;5.50;99.90;;;;;;5069111;28;20447;-88
2021/12/14 12:06:10;;;;;;;0.83;0.30;;;5.50;99.90;;;;;;5064991;28;20971;-90
2021/12/14 12:11:33;;;;;;;0.30;0.10;;;5.50;99.90;;;;;;5092504;28;20437;-90
2021/12/14 12:14:00;;;;;;;0.30;0.20;;;5.50;99.90;;;;;;5081032;28;20450;-87
2021/12/14 12:16:28;;;;;;;0.30;0.20;;;5.60;99.90;;;;;;5072159;28;20518;-88
2021/12/14 12:19:08;;;;;;;0.73;0.73;;;5.60;99.90;;;;;;5065894;28;20448;-88
2021/12/14 12:21:41;;;;;;;0.30;0.10;;;5.60;99.90;;;;;;5069268;28;20508;-88
2021/12/14 12:24:32;;;;;;;0.30;0.10;;;5.50;99.90;;;;;;5071044;28;20537;-88
2021/12/14 12:27:31;;;;;;;0.30;0.20;;;5.50;99.90;;;;;;5064523;28;20445;-88
2021/12/14 12:30:40;;;;;;;0.30;0.20;;;5.50;99.90;;;;;;5068941;28;20472;-88
2021/12/14 12:33:24;;;;;;;0.30;0.10;;;5.50;99.90;;;;;;5033416;28;20505;-88
2021/12/14 12:35:55;;;;;;;0.30;0.10;;;5.40;99.90;;;;;;5036717;28;20440;-89
2021/12/14 12:38:42;;;;;;;1.90;0.80;;;5.40;99.90;;;;;;5043097;28;20449;-88
2021/12/14 12:41:16;;;;;;;0.40;0.30;;;5.40;99.90;;;;;;5069784;28;20547;-88
2021/12/14 12:43:49;;;;;;;0.40;0.30;;;5.50;99.90;;;;;;5070842;28;20450;-89
2021/12/14 12:46:22;;;;;;;0.30;0.20;;;5.40;99.90;;;;;;5068243;28;20497;-89
2021/12/14 12:49:09;;;;;;;0.30;0.10;;;5.40;99.90;;;;;;5070521;28;20448;-89
2021/12/14 12:51:45;;;;;;;0.30;0.10;;;5.40;99.90;;;;;;5070688;28;20546;-89
2021/12/14 12:54:17;;;;;;;0.50;0.50;;;5.40;99.90;;;;;;5062199;28;20444;-89
2021/12/14 12:56:47;;;;;;;0.30;0.20;;;5.30;99.90;;;;;;5051532;28;20441;-88
2021/12/14 12:59:35;;;;;;;0.30;0.10;;;5.10;99.90;;;;;;5065307;28;20490;-88
2021/12/14 13:02:17;;;;;;;0.30;0.20;;;5.10;99.90;;;;;;5057919;28;20564;-90
2021/12/14 13:04:48;;;;;;;0.30;0.10;;;5.10;99.90;;;;;;5056409;28;20553;-89
2021/12/14 13:07:16;;;;;;;0.30;0.10;;;5.00;99.90;;;;;;5086592;28;20464;-89
2021/12/14 13:10:18;;;;;;;0.30;0.10;;;5.10;99.90;;;;;;5081724;28;20500;-88
2021/12/14 13:12:50;;;;;;;0.30;0.30;;;5.10;99.90;;;;;;5009451;28;20454;-88
2021/12/14 13:15:57;;;;;;;0.60;0.60;;;5.10;99.90;;;;;;5006605;28;20556;-88
2021/12/14 13:18:39;;;;;;;0.30;0.10;;;5.00;99.90;;;;;;5055759;28;20446;-88
2021/12/14 13:21:23;;;;;;;0.30;0.20;;;5.00;99.90;;;;;;5071047;28;20568;-88
2021/12/14 13:24:01;;;;;;;0.30;0.10;;;5.00;99.90;;;;;;5070153;28;21022;-89
2021/12/14 13:26:51;;;;;;;0.30;0.20;;;5.00;99.90;;;;;;5070801;28;20436;-89
2021/12/14 13:29:26;;;;;;;0.30;0.10;;;5.00;99.90;;;;;;5069479;28;20460;-88
2021/12/14 13:31:56;;;;;;;0.30;0.10;;;5.10;99.90;;;;;;5071249;28;20520;-90
2021/12/14 13:34:27;;;;;;;0.50;0.47;;;5.10;99.90;;;;;;5069861;28;20513;-90
2021/12/14 13:36:56;;;;;;;0.30;0.20;;;5.10;99.90;;;;;;5061451;28;20510;-88
2021/12/14 13:39:25;;;;;;;1.40;1.40;;;5.10;99.90;;;;;;5050277;28;20503;-90
2021/12/14 13:42:31;;;;;;;0.40;0.30;;;5.00;99.90;;;;;;5051176;28;20480;-88
2021/12/14 13:45:00;;;;;;;0.30;0.10;;;5.00;99.90;;;;;;5069713;28;20919;-89
2021/12/14 13:47:29;;;;;;;0.30;0.10;;;5.10;99.90;;;;;;5070151;28;21032;-88
2021/12/14 13:50:01;;;;;;;0.30;0.10;;;5.00;99.90;;;;;;5069783;28;20482;-88
2021/12/14 13:52:28;;;;;;;1.37;0.40;;;5.00;99.90;;;;;;5069692;28;20919;-88
2021/12/14 13:55:28;;;;;;;1.23;0.57;;;5.00;99.90;;;;;;5070500;28;20914;-92
2021/12/14 13:57:59;;;;;;;0.40;0.30;;;5.10;99.90;;;;;;5050608;28;20928;-89